Time;durP1;ratioP1;P1;durP2;ratioP2;P2;SDS_P1;SDS_P2;PMS_P1;PMS_P2;Temp;Humidity;BMP_temperature;BMP_pressure;BME280_temperature;BME280_humidity;BME280_pressure;Samples;Min_cycle;Max_cycle;Signal;HPM_P1;HPM_P2
2023/12/05 00:00:36;;;;;;;86.57;49.97;;;1.10;46.40;;;;;;5059005;28;20212;-88
2023/12/05 00:03:02;;;;;;;89.27;49.73;;;1.10;46.50;;;;;;5063211;28;20178;-88
2023/12/05 00:05:28;;;;;;;88.13;49.40;;;1.10;46.50;;;;;;5083579;28;20209;-87
2023/12/05 00:07:54;;;;;;;92.17;51.67;;;1.20;46.60;;;;;;5083295;28;20209;-88
2023/12/05 00:10:20;;;;;;;86.63;50.10;;;1.10;46.50;;;;;;5055697;28;20174;-87
2023/12/05 00:12:46;;;;;;;80.90;47.53;;;1.10;46.40;;;;;;5059522;28;20570;-88
2023/12/05 00:15:11;;;;;;;89.37;51.07;;;1.10;46.30;;;;;;5063639;28;20265;-88
2023/12/05 00:17:37;;;;;;;90.53;49.53;;;1.20;46.40;;;;;;5085956;28;20182;-88
2023/12/05 00:20:03;;;;;;;86.93;48.90;;;1.10;46.40;;;;;;5069180;28;20263;-87
2023/12/05 00:22:29;;;;;;;83.23;48.73;;;1.10;46.40;;;;;;5083270;28;20183;-87
2023/12/05 00:24:55;;;;;;;83.17;49.57;;;1.10;46.40;;;;;;5058755;28;20209;-87
2023/12/05 00:27:20;;;;;;;90.43;50.20;;;1.20;46.60;;;;;;5064921;28;20183;-88
2023/12/05 00:29:47;;;;;;;81.67;46.73;;;1.10;46.40;;;;;;5070845;28;20324;-88
2023/12/05 00:32:13;;;;;;;85.00;48.73;;;1.10;47.00;;;;;;5086144;28;20690;-88
2023/12/05 00:34:38;;;;;;;75.83;45.60;;;1.10;46.50;;;;;;5055535;28;20316;-87
2023/12/05 00:37:04;;;;;;;80.37;47.13;;;1.10;46.60;;;;;;5069096;28;20183;-88
2023/12/05 00:39:30;;;;;;;90.10;49.60;;;1.10;46.70;;;;;;5064539;28;20193;-88
2023/12/05 00:41:55;;;;;;;81.97;48.20;;;1.20;46.80;;;;;;5061971;28;20181;-87
2023/12/05 00:44:21;;;;;;;86.73;48.70;;;1.10;46.70;;;;;;5069111;28;20194;-87
2023/12/05 00:46:46;;;;;;;84.10;48.13;;;1.10;46.70;;;;;;5061606;28;20190;-87
2023/12/05 00:49:12;;;;;;;86.07;50.27;;;1.10;46.80;;;;;;5058987;28;20178;-88
2023/12/05 00:51:38;;;;;;;84.73;48.03;;;1.10;46.80;;;;;;5064846;28;20600;-88
2023/12/05 00:54:04;;;;;;;89.37;49.70;;;1.10;46.80;;;;;;5083185;28;20184;-87
2023/12/05 00:56:29;;;;;;;86.97;48.47;;;1.10;46.70;;;;;;5084692;28;20244;-87
2023/12/05 00:58:55;;;;;;;86.90;49.23;;;1.10;46.80;;;;;;5061083;28;20646;-88
2023/12/05 01:01:21;;;;;;;82.83;47.77;;;1.10;46.80;;;;;;5079079;28;20206;-88
2023/12/05 01:03:46;;;;;;;86.63;49.03;;;1.10;46.80;;;;;;5063356;28;20698;-88
2023/12/05 01:06:12;;;;;;;78.77;45.53;;;1.10;46.80;;;;;;5066614;28;20180;-88
2023/12/05 01:08:38;;;;;;;81.37;46.73;;;1.20;46.90;;;;;;5100089;28;20643;-88
2023/12/05 01:11:04;;;;;;;76.57;44.93;;;1.10;46.80;;;;;;5073257;28;20188;-88
2023/12/05 01:13:30;;;;;;;78.77;45.67;;;1.10;46.80;;;;;;5085599;28;20207;-87
2023/12/05 01:15:55;;;;;;;74.50;42.97;;;1.10;47.00;;;;;;5079052;28;20277;-87
2023/12/05 01:18:21;;;;;;;78.77;44.10;;;1.10;47.00;;;;;;5060774;28;20651;-87
2023/12/05 01:20:46;;;;;;;72.50;42.67;;;1.10;47.00;;;;;;5083954;28;20269;-88
2023/12/05 01:23:12;;;;;;;70.97;42.40;;;1.20;47.10;;;;;;5054178;28;20613;-87
2023/12/05 01:25:38;;;;;;;71.33;40.23;;;1.10;47.00;;;;;;5061706;28;20543;-87
2023/12/05 01:28:04;;;;;;;75.73;41.20;;;1.10;47.10;;;;;;5063224;28;20176;-88
2023/12/05 01:30:30;;;;;;;69.77;39.60;;;1.10;47.10;;;;;;5067158;28;20188;-87
2023/12/05 01:32:55;;;;;;;66.97;37.07;;;1.20;47.30;;;;;;5075590;28;20206;-87
2023/12/05 01:35:21;;;;;;;67.27;38.60;;;1.20;47.40;;;;;;5091633;28;20184;-88
2023/12/05 01:37:48;;;;;;;59.70;36.80;;;1.30;47.40;;;;;;5089918;28;20204;-88
2023/12/05 01:40:14;;;;;;;66.30;38.70;;;1.20;47.40;;;;;;5063356;28;20214;-88
2023/12/05 01:42:39;;;;;;;61.63;36.50;;;1.20;47.40;;;;;;5066448;28;20196;-87
2023/12/05 01:45:06;;;;;;;66.23;37.30;;;1.30;47.40;;;;;;5072601;28;20268;-88
2023/12/05 01:47:35;;;;;;;60.00;36.83;;;1.20;47.30;;;;;;5072022;28;20179;-88
2023/12/05 01:50:02;;;;;;;63.17;36.07;;;1.20;47.40;;;;;;5085541;28;20201;-87
2023/12/05 01:52:29;;;;;;;62.47;38.07;;;1.30;47.30;;;;;;5086284;28;20183;-87
2023/12/05 01:54:55;;;;;;;61.57;36.07;;;1.20;47.30;;;;;;5072364;28;20186;-87
2023/12/05 01:57:20;;;;;;;57.60;33.83;;;1.30;47.40;;;;;;5068048;28;20183;-87
2023/12/05 01:59:46;;;;;;;65.20;36.23;;;1.30;47.30;;;;;;5086715;28;20186;-88
2023/12/05 02:02:12;;;;;;;53.80;33.87;;;1.20;47.40;;;;;;5057060;28;20260;-87
2023/12/05 02:04:38;;;;;;;60.27;35.30;;;1.30;47.40;;;;;;5081965;28;20618;-87
2023/12/05 02:07:05;;;;;;;54.47;32.33;;;1.40;47.50;;;;;;5069618;28;20187;-87
2023/12/05 02:09:31;;;;;;;56.30;34.23;;;1.30;47.50;;;;;;5070008;28;20213;-88
2023/12/05 02:11:57;;;;;;;53.17;32.93;;;1.30;47.50;;;;;;5086632;28;20295;-88
2023/12/05 02:14:24;;;;;;;55.83;33.77;;;1.30;47.50;;;;;;5073424;28;20600;-86
2023/12/05 02:16:50;;;;;;;55.97;33.43;;;1.30;47.50;;;;;;5073817;28;20523;-88
2023/12/05 02:19:47;;;;;;;57.80;35.23;;;1.30;47.60;;;;;;5062678;28;20191;-87
2023/12/05 02:22:46;;;;;;;62.10;34.03;;;1.30;47.60;;;;;;5076734;28;20189;-88
2023/12/05 02:25:24;;;;;;;55.47;33.50;;;1.30;47.50;;;;;;5063734;28;20192;-87
2023/12/05 02:27:50;;;;;;;56.50;34.63;;;1.30;47.50;;;;;;5063763;28;20189;-88
2023/12/05 02:30:16;;;;;;;58.87;35.50;;;1.30;47.60;;;;;;5055721;28;20194;-87
2023/12/05 02:32:42;;;;;;;55.80;33.10;;;1.30;47.60;;;;;;5069117;28;20315;-88
2023/12/05 02:35:08;;;;;;;54.27;33.93;;;1.30;47.60;;;;;;5056957;28;20178;-87
2023/12/05 02:37:58;;;;;;;52.27;32.73;;;1.30;47.70;;;;;;5070783;28;20274;-87
2023/12/05 02:40:34;;;;;;;57.43;35.07;;;1.30;47.70;;;;;;5084697;28;20254;-87
2023/12/05 02:43:04;;;;;;;58.47;34.40;;;1.30;47.70;;;;;;5086135;28;20272;-88
2023/12/05 02:45:31;;;;;;;56.50;33.30;;;1.30;48.30;;;;;;5086410;28;20207;-88
2023/12/05 02:48:00;;;;;;;55.13;33.53;;;1.30;47.80;;;;;;5056284;28;20187;-88
2023/12/05 02:50:26;;;;;;;61.57;34.90;;;1.40;47.80;;;;;;5071965;28;20228;-87
2023/12/05 02:52:51;;;;;;;52.07;31.70;;;1.40;47.70;;;;;;5087644;28;20179;-87
2023/12/05 02:55:17;;;;;;;51.70;32.83;;;1.30;47.70;;;;;;5084459;28;20218;-88
2023/12/05 02:57:43;;;;;;;58.20;34.10;;;1.40;47.80;;;;;;5086648;28;20203;-88
2023/12/05 03:00:09;;;;;;;52.47;32.83;;;1.30;47.80;;;;;;5069653;28;20207;-88
2023/12/05 03:02:34;;;;;;;50.73;32.57;;;1.40;48.00;;;;;;5077763;28;20632;-87
2023/12/05 03:05:00;;;;;;;51.50;31.97;;;1.50;48.00;;;;;;5085338;28;20270;-88
2023/12/05 03:07:26;;;;;;;53.33;33.03;;;1.40;47.90;;;;;;5090365;28;20188;-88
2023/12/05 03:09:51;;;;;;;51.83;32.53;;;1.40;48.00;;;;;;5080347;28;20253;-88
2023/12/05 03:12:17;;;;;;;48.77;31.70;;;1.50;48.10;;;;;;5084935;28;20278;-88
2023/12/05 03:14:43;;;;;;;52.93;31.40;;;1.50;48.10;;;;;;5071576;28;20170;-87
2023/12/05 03:17:08;;;;;;;52.47;31.53;;;1.40;48.00;;;;;;5073263;28;20173;-88
2023/12/05 03:19:34;;;;;;;60.50;33.33;;;1.40;48.10;;;;;;5068886;28;20183;-88
2023/12/05 03:21:59;;;;;;;57.20;32.43;;;1.40;48.10;;;;;;5061480;28;20192;-88
2023/12/05 03:24:25;;;;;;;58.90;32.77;;;1.60;48.20;;;;;;5057949;28;20226;-87
2023/12/05 03:26:51;;;;;;;51.60;31.20;;;1.60;48.20;;;;;;5069302;28;20273;-88
2023/12/05 03:29:17;;;;;;;48.47;30.10;;;1.50;48.20;;;;;;5071505;28;20263;-88
2023/12/05 03:31:42;;;;;;;48.27;30.17;;;1.50;48.20;;;;;;5071148;28;20190;-87
2023/12/05 03:34:08;;;;;;;47.40;30.40;;;1.50;48.30;;;;;;5086287;28;20234;-87
2023/12/05 03:36:34;;;;;;;49.67;31.27;;;1.50;48.30;;;;;;5085291;28;20191;-88
2023/12/05 03:39:00;;;;;;;49.43;29.83;;;1.50;48.30;;;;;;5086230;28;20194;-87
2023/12/05 03:41:25;;;;;;;47.37;30.50;;;1.60;48.50;;;;;;5069108;28;20209;-87
2023/12/05 03:43:51;;;;;;;49.33;29.80;;;1.60;48.50;;;;;;5058930;28;20585;-88
2023/12/05 03:46:17;;;;;;;52.10;31.30;;;1.60;48.50;;;;;;5055019;28;20183;-87
2023/12/05 03:48:43;;;;;;;50.80;30.33;;;1.60;48.50;;;;;;5065385;28;20185;-88
2023/12/05 03:51:08;;;;;;;48.20;29.57;;;1.60;48.50;;;;;;5087100;28;20179;-87
2023/12/05 03:53:34;;;;;;;45.27;29.63;;;1.80;48.60;;;;;;5088614;28;20228;-87
2023/12/05 03:56:00;;;;;;;47.53;30.17;;;1.70;48.60;;;;;;5085084;28;20313;-87
2023/12/05 03:58:25;;;;;;;47.40;30.93;;;1.70;48.60;;;;;;5058040;28;20191;-87
2023/12/05 04:00:51;;;;;;;48.50;29.73;;;1.70;48.50;;;;;;5076513;28;20212;-87
2023/12/05 04:03:17;;;;;;;42.67;27.83;;;1.70;48.60;;;;;;5083381;28;20692;-88
2023/12/05 04:05:42;;;;;;;46.93;29.17;;;1.80;48.70;;;;;;5084116;28;20256;-87
2023/12/05 04:08:08;;;;;;;49.07;29.60;;;1.80;48.70;;;;;;5098024;28;20637;-87
2023/12/05 04:10:33;;;;;;;48.10;31.60;;;1.80;48.70;;;;;;5068982;28;20187;-88
2023/12/05 04:12:59;;;;;;;46.20;29.50;;;1.90;48.70;;;;;;5056827;28;20184;-88
2023/12/05 04:15:25;;;;;;;43.40;28.37;;;2.00;48.70;;;;;;5084457;28;20541;-88
2023/12/05 04:17:51;;;;;;;46.13;29.40;;;1.80;48.60;;;;;;5087448;28;20198;-88
2023/12/05 04:20:17;;;;;;;49.33;29.73;;;1.90;48.80;;;;;;5068919;28;20262;-87
2023/12/05 04:22:43;;;;;;;45.90;29.37;;;1.90;48.80;;;;;;5070976;28;20245;-88
2023/12/05 04:25:10;;;;;;;42.63;28.40;;;2.00;48.90;;;;;;5055874;28;20189;-86
2023/12/05 04:27:36;;;;;;;45.63;29.03;;;1.90;48.90;;;;;;5065381;28;20224;-88
2023/12/05 04:30:04;;;;;;;49.30;30.30;;;1.90;49.40;;;;;;5051242;28;20185;-88
2023/12/05 04:32:30;;;;;;;47.13;29.37;;;2.00;48.90;;;;;;5088298;28;20178;-87
2023/12/05 04:34:55;;;;;;;46.30;30.57;;;2.10;48.90;;;;;;5078771;28;20195;-88
2023/12/05 04:37:21;;;;;;;45.50;30.10;;;2.10;49.00;;;;;;5059147;28;20176;-87
2023/12/05 04:39:47;;;;;;;45.30;30.53;;;2.10;49.00;;;;;;5063066;28;20186;-87
2023/12/05 04:42:12;;;;;;;41.90;28.97;;;2.10;49.00;;;;;;5071180;28;20179;-88
2023/12/05 04:44:38;;;;;;;47.53;30.90;;;2.10;49.00;;;;;;5087144;28;20177;-88
2023/12/05 04:47:04;;;;;;;46.03;29.83;;;2.00;48.90;;;;;;5085491;28;20213;-88
2023/12/05 04:49:30;;;;;;;47.43;30.80;;;2.00;48.80;;;;;;5075531;28;20277;-88
2023/12/05 04:51:56;;;;;;;45.10;28.63;;;2.00;48.90;;;;;;5061664;28;20243;-88
2023/12/05 04:54:21;;;;;;;44.67;29.10;;;2.00;48.90;;;;;;5071886;28;20189;-87
2023/12/05 04:56:47;;;;;;;44.93;28.77;;;2.00;48.80;;;;;;5084076;28;20231;-88
2023/12/05 04:59:12;;;;;;;45.13;29.47;;;2.20;48.90;;;;;;5072498;28;20228;-88
2023/12/05 05:01:38;;;;;;;43.43;28.10;;;2.00;48.80;;;;;;5072870;28;20276;-88
2023/12/05 05:04:04;;;;;;;42.93;28.43;;;2.00;48.80;;;;;;5072812;28;20693;-87
2023/12/05 05:06:30;;;;;;;42.63;27.83;;;2.00;48.80;;;;;;5089817;28;20186;-88
2023/12/05 05:08:56;;;;;;;43.07;27.60;;;2.10;49.00;;;;;;5073743;28;20201;-88
2023/12/05 05:11:23;;;;;;;42.10;27.63;;;2.10;48.90;;;;;;5055586;28;20235;-87
2023/12/05 05:13:48;;;;;;;41.07;27.40;;;2.00;48.80;;;;;;5068363;28;20528;-87
2023/12/05 05:16:14;;;;;;;44.73;29.07;;;2.10;48.80;;;;;;5071349;28;20268;-88
2023/12/05 05:18:40;;;;;;;44.23;28.00;;;2.20;48.80;;;;;;5079559;28;20875;-87
2023/12/05 05:21:06;;;;;;;43.83;27.23;;;2.00;48.70;;;;;;5057565;28;21385;-87
2023/12/05 05:23:35;;;;;;;40.60;26.67;;;2.00;48.70;;;;;;5064104;28;20179;-87
2023/12/05 05:26:34;;;;;;;42.73;28.17;;;2.00;48.70;;;;;;5060509;28;20182;-87
2023/12/05 05:29:00;;;;;;;41.10;27.43;;;2.00;48.80;;;;;;5063681;28;20301;-87
2023/12/05 05:31:26;;;;;;;43.17;28.17;;;2.00;48.60;;;;;;5060252;28;20290;-86
2023/12/05 05:33:51;;;;;;;45.97;28.10;;;2.00;48.70;;;;;;5068026;28;20177;-82
2023/12/05 05:36:17;;;;;;;41.90;27.60;;;2.10;48.70;;;;;;5064895;28;20226;-85
2023/12/05 05:38:43;;;;;;;44.63;29.00;;;2.10;49.20;;;;;;5067447;28;20655;-87
2023/12/05 05:41:11;;;;;;;46.13;30.03;;;2.10;48.70;;;;;;5062116;28;20208;-88
2023/12/05 05:43:37;;;;;;;42.17;28.77;;;2.10;48.60;;;;;;5064089;28;20652;-87
2023/12/05 05:46:02;;;;;;;43.47;28.30;;;2.00;48.60;;;;;;5064269;28;20248;-85
2023/12/05 05:48:28;;;;;;;42.23;26.67;;;2.00;48.60;;;;;;5064726;28;20197;-90
2023/12/05 05:50:54;;;;;;;41.77;27.93;;;2.00;48.50;;;;;;5070906;28;20234;-85
2023/12/05 05:53:19;;;;;;;45.70;29.07;;;2.00;48.50;;;;;;5063684;28;20282;-86
2023/12/05 05:55:51;;;;;;;41.90;27.80;;;2.00;48.40;;;;;;5066863;28;20224;-85
2023/12/05 05:58:17;;;;;;;42.23;26.70;;;2.00;48.40;;;;;;5062037;28;20191;-89
2023/12/05 06:00:44;;;;;;;44.37;28.50;;;2.00;48.40;;;;;;5074910;28;20248;-87
2023/12/05 06:03:09;;;;;;;44.37;28.03;;;2.10;48.50;;;;;;5086308;28;20188;-89
2023/12/05 06:05:35;;;;;;;43.00;28.30;;;2.00;48.30;;;;;;5062707;28;20198;-86
2023/12/05 06:08:01;;;;;;;42.13;29.07;;;2.10;48.40;;;;;;5082891;28;20185;-85
2023/12/05 06:10:27;;;;;;;42.10;27.60;;;2.00;48.40;;;;;;5062922;28;20198;-90
2023/12/05 06:12:53;;;;;;;45.53;28.83;;;2.00;48.40;;;;;;5061872;28;20523;-89
2023/12/05 06:15:18;;;;;;;44.77;26.77;;;2.00;48.40;;;;;;5063185;28;20182;-91
2023/12/05 06:17:44;;;;;;;43.77;27.37;;;2.00;48.30;;;;;;5084156;28;20179;-89
2023/12/05 06:20:10;;;;;;;37.30;25.37;;;2.00;48.30;;;;;;5064631;28;20214;-86
2023/12/05 06:22:36;;;;;;;42.77;27.27;;;1.90;48.20;;;;;;5066532;28;20337;-87
2023/12/05 06:25:01;;;;;;;39.77;27.17;;;1.90;48.30;;;;;;5062638;28;20191;-84
2023/12/05 06:27:27;;;;;;;40.83;27.80;;;2.00;48.30;;;;;;5059435;28;20315;-84
2023/12/05 06:29:53;;;;;;;44.37;28.30;;;2.00;48.30;;;;;;5063025;28;20180;-82
2023/12/05 06:32:19;;;;;;;42.17;28.13;;;1.90;48.10;;;;;;5057776;28;20606;-90
2023/12/05 06:34:44;;;;;;;46.17;27.80;;;1.90;48.20;;;;;;5060110;28;20183;-89
2023/12/05 06:37:10;;;;;;;42.57;26.40;;;1.90;48.20;;;;;;5058624;28;20195;-89
2023/12/05 06:39:36;;;;;;;44.73;28.27;;;2.00;48.20;;;;;;5079689;28;20178;-89
2023/12/05 06:42:01;;;;;;;39.93;27.07;;;1.90;48.00;;;;;;5084749;28;20609;-88
2023/12/05 06:44:27;;;;;;;40.80;27.27;;;1.90;48.40;;;;;;5074504;28;20190;-88
2023/12/05 06:46:52;;;;;;;38.97;26.37;;;1.90;48.00;;;;;;5060041;28;20840;-87
2023/12/05 06:49:18;;;;;;;45.43;29.83;;;1.90;48.10;;;;;;5056896;28;20277;-85
2023/12/05 06:51:44;;;;;;;45.13;28.57;;;2.00;48.10;;;;;;5087153;28;20187;-87
2023/12/05 06:54:09;;;;;;;39.07;26.10;;;1.80;48.00;;;;;;5088792;28;20203;-90
2023/12/05 06:56:35;;;;;;;41.50;27.63;;;1.90;48.10;;;;;;5066355;28;20233;-85
2023/12/05 06:59:03;;;;;;;41.67;27.43;;;2.00;48.10;;;;;;5081835;28;20191;-87
2023/12/05 07:01:29;;;;;;;41.10;27.03;;;1.90;47.90;;;;;;5082007;28;20657;-87
2023/12/05 07:03:55;;;;;;;39.27;25.73;;;1.70;47.80;;;;;;5087326;28;20178;-87
2023/12/05 07:06:21;;;;;;;40.70;26.20;;;1.80;47.80;;;;;;5066766;28;20187;-86
2023/12/05 07:08:46;;;;;;;41.13;27.63;;;1.80;48.00;;;;;;5062307;28;20663;-84
2023/12/05 07:11:12;;;;;;;43.13;28.00;;;1.90;48.00;;;;;;5066397;28;20552;-88
2023/12/05 07:13:37;;;;;;;41.40;27.63;;;1.80;48.00;;;;;;5084420;28;20196;-84
2023/12/05 07:16:04;;;;;;;42.63;27.83;;;1.90;48.00;;;;;;5084689;28;20197;-89
2023/12/05 07:18:29;;;;;;;46.50;28.63;;;1.80;47.90;;;;;;5071579;28;20215;-87
2023/12/05 07:20:55;;;;;;;46.37;28.30;;;1.90;47.90;;;;;;5081521;28;20231;-86
2023/12/05 07:23:21;;;;;;;45.03;27.27;;;1.80;47.90;;;;;;5077589;28;20619;-86
2023/12/05 07:25:46;;;;;;;46.83;27.93;;;1.90;48.00;;;;;;5059603;28;20186;-90
2023/12/05 07:28:12;;;;;;;48.90;28.47;;;1.80;48.00;;;;;;5055132;28;20194;-88
2023/12/05 07:30:38;;;;;;;47.03;27.93;;;1.80;48.00;;;;;;5067794;28;20193;-85
2023/12/05 07:33:03;;;;;;;47.63;28.70;;;1.80;48.00;;;;;;5059228;28;20181;-84
2023/12/05 07:35:29;;;;;;;46.83;28.20;;;1.90;48.00;;;;;;5066015;28;20193;-87
2023/12/05 07:37:54;;;;;;;44.03;27.63;;;1.90;48.10;;;;;;5082316;28;20665;-89
2023/12/05 07:40:20;;;;;;;54.70;29.67;;;2.00;48.10;;;;;;5064344;28;20680;-89
2023/12/05 07:42:46;;;;;;;43.83;28.10;;;1.80;48.00;;;;;;5084109;28;20171;-85
2023/12/05 07:45:12;;;;;;;47.47;28.57;;;1.90;48.10;;;;;;5072451;28;20180;-88
2023/12/05 07:47:37;;;;;;;43.37;28.50;;;1.90;48.10;;;;;;5059579;28;20192;-87
2023/12/05 07:50:03;;;;;;;44.43;28.97;;;1.90;48.00;;;;;;5058203;28;20186;-87
2023/12/05 07:52:29;;;;;;;45.90;28.50;;;1.90;48.00;;;;;;5085765;28;20184;-85
2023/12/05 07:54:55;;;;;;;45.17;28.40;;;2.00;48.10;;;;;;5087445;28;20274;-88
2023/12/05 07:57:22;;;;;;;46.20;28.80;;;2.00;48.10;;;;;;5069288;28;20283;-85
2023/12/05 07:59:48;;;;;;;48.23;28.13;;;1.90;48.00;;;;;;5069530;28;20187;-88
2023/12/05 08:02:14;;;;;;;41.90;28.37;;;2.00;48.10;;;;;;5078742;28;20185;-85
2023/12/05 08:04:41;;;;;;;45.63;29.13;;;2.00;48.10;;;;;;5080851;28;20190;-85
2023/12/05 08:07:07;;;;;;;46.73;28.43;;;2.10;48.20;;;;;;5075056;28;20191;-84
2023/12/05 08:09:33;;;;;;;48.20;27.67;;;2.00;48.20;;;;;;5096217;28;20224;-86
2023/12/05 08:11:58;;;;;;;41.70;26.63;;;2.00;48.20;;;;;;5071698;28;20218;-87
2023/12/05 08:14:24;;;;;;;45.43;28.67;;;2.00;48.20;;;;;;5085295;28;20238;-86
2023/12/05 08:16:50;;;;;;;42.67;27.27;;;2.20;48.40;;;;;;5085241;28;20184;-88
2023/12/05 08:19:15;;;;;;;47.47;28.57;;;2.00;48.30;;;;;;5074819;28;20703;-85
2023/12/05 08:21:41;;;;;;;45.30;28.67;;;2.10;48.30;;;;;;5072427;28;20201;-88
2023/12/05 08:24:07;;;;;;;41.83;28.00;;;2.10;48.30;;;;;;5076360;28;20638;-87
2023/12/05 08:26:32;;;;;;;42.00;27.47;;;2.20;48.30;;;;;;5063903;28;20269;-85
2023/12/05 08:28:58;;;;;;;43.60;28.77;;;2.20;48.30;;;;;;5063614;28;20189;-87
2023/12/05 08:31:24;;;;;;;45.80;28.63;;;2.20;48.40;;;;;;5058988;28;20196;-89
2023/12/05 08:33:50;;;;;;;46.00;29.47;;;2.20;48.40;;;;;;5072101;28;20175;-84
2023/12/05 08:36:19;;;;;;;44.63;28.97;;;2.30;48.40;;;;;;5075772;28;20664;-85
2023/12/05 08:38:45;;;;;;;46.67;29.47;;;2.20;48.20;;;;;;5066350;28;20185;-86
2023/12/05 08:41:18;;;;;;;47.53;29.33;;;2.30;48.40;;;;;;5070717;28;20223;-85
2023/12/05 08:43:43;;;;;;;49.53;30.53;;;2.30;48.40;;;;;;5058738;28;20184;-87
2023/12/05 08:46:09;;;;;;;46.77;29.57;;;2.40;48.40;;;;;;5071001;28;20550;-86
2023/12/05 08:48:35;;;;;;;46.30;30.27;;;2.20;48.30;;;;;;5059678;28;20219;-86
2023/12/05 08:51:00;;;;;;;46.30;29.10;;;2.30;48.30;;;;;;5064122;28;20193;-87
2023/12/05 08:53:26;;;;;;;44.17;28.23;;;2.40;48.40;;;;;;5070478;28;20177;-87
2023/12/05 08:55:51;;;;;;;42.77;29.27;;;2.30;48.30;;;;;;5087124;28;20270;-86
2023/12/05 08:58:17;;;;;;;46.50;30.03;;;2.30;48.20;;;;;;5055947;28;20260;-87
2023/12/05 09:00:43;;;;;;;48.73;30.17;;;2.30;48.10;;;;;;5054582;28;20702;-85
2023/12/05 09:03:08;;;;;;;47.03;30.00;;;2.40;48.20;;;;;;5084959;28;20187;-85
2023/12/05 09:05:35;;;;;;;47.10;30.17;;;2.40;48.30;;;;;;5086463;28;20186;-88
2023/12/05 09:08:01;;;;;;;44.13;29.40;;;2.40;48.30;;;;;;5071790;28;20184;-87
2023/12/05 09:10:27;;;;;;;47.83;30.20;;;2.60;48.50;;;;;;5065917;28;20228;-89
2023/12/05 09:12:53;;;;;;;43.93;28.73;;;2.40;48.20;;;;;;5055563;28;20192;-87
2023/12/05 09:15:19;;;;;;;43.10;27.33;;;2.60;48.40;;;;;;5070957;28;20179;-86
2023/12/05 09:17:44;;;;;;;45.13;28.03;;;2.50;48.40;;;;;;5070580;28;20192;-88
2023/12/05 09:20:10;;;;;;;43.63;28.37;;;2.50;48.30;;;;;;5084014;28;20611;-90
2023/12/05 09:22:36;;;;;;;42.80;28.70;;;2.50;48.30;;;;;;5059020;28;20653;-85
2023/12/05 09:25:02;;;;;;;46.07;29.33;;;2.70;48.30;;;;;;5057922;28;20254;-86
2023/12/05 09:27:28;;;;;;;44.50;28.60;;;2.50;48.20;;;;;;5075031;28;20650;-85
2023/12/05 09:29:54;;;;;;;43.67;28.27;;;2.60;48.30;;;;;;5066525;28;20217;-87
2023/12/05 09:32:19;;;;;;;44.30;29.43;;;2.60;48.30;;;;;;5084243;28;20233;-85
2023/12/05 09:34:45;;;;;;;44.97;29.07;;;2.60;48.30;;;;;;5087083;28;20185;-88
2023/12/05 09:37:11;;;;;;;43.37;27.77;;;2.70;48.30;;;;;;5087422;28;20660;-88
2023/12/05 09:39:36;;;;;;;40.60;28.10;;;2.60;48.20;;;;;;5084952;28;20180;-87
2023/12/05 09:42:06;;;;;;;44.77;29.03;;;2.70;48.40;;;;;;5062333;28;20316;-88
2023/12/05 09:44:33;;;;;;;43.53;27.23;;;2.70;48.40;;;;;;5061729;28;20193;-88
2023/12/05 09:47:09;;;;;;;46.30;28.43;;;2.70;48.30;;;;;;5057080;28;20191;-88
2023/12/05 09:49:35;;;;;;;45.57;29.20;;;2.70;48.30;;;;;;5059226;28;20185;-89
2023/12/05 09:52:01;;;;;;;46.73;28.90;;;2.80;48.40;;;;;;5067067;28;20175;-88
2023/12/05 09:54:27;;;;;;;42.93;28.30;;;2.80;48.40;;;;;;5074964;28;20184;-88
2023/12/05 09:56:56;;;;;;;43.87;28.13;;;2.80;48.30;;;;;;5061099;28;20282;-86
2023/12/05 09:59:22;;;;;;;45.57;28.43;;;2.80;48.40;;;;;;5059804;28;20188;-86
2023/12/05 10:01:49;;;;;;;44.23;28.77;;;3.00;48.50;;;;;;5088291;28;20714;-85
2023/12/05 10:04:17;;;;;;;42.47;29.00;;;3.00;48.50;;;;;;5069118;28;20280;-87
2023/12/05 10:06:44;;;;;;;43.73;28.53;;;2.90;48.40;;;;;;5088365;28;20181;-87
2023/12/05 10:09:14;;;;;;;43.17;28.37;;;2.90;48.40;;;;;;5063794;28;20183;-87
2023/12/05 10:11:40;;;;;;;44.77;28.50;;;2.90;48.40;;;;;;5067879;28;20217;-88
2023/12/05 10:14:06;;;;;;;41.97;28.77;;;2.90;48.30;;;;;;5072311;28;20646;-88
2023/12/05 10:16:33;;;;;;;46.60;29.63;;;3.00;48.40;;;;;;5085054;28;20191;-85
2023/12/05 10:18:59;;;;;;;46.43;27.50;;;3.10;48.50;;;;;;5069369;28;20258;-85
2023/12/05 10:21:25;;;;;;;40.97;29.03;;;3.00;48.30;;;;;;5055801;28;20213;-88
2023/12/05 10:23:51;;;;;;;44.33;28.27;;;3.00;48.30;;;;;;5069064;28;20176;-88
2023/12/05 10:26:17;;;;;;;46.60;28.13;;;3.10;48.30;;;;;;5082725;28;20206;-87
2023/12/05 10:28:50;;;;;;;45.20;28.57;;;3.10;48.40;;;;;;5085500;28;20192;-88
2023/12/05 10:31:17;;;;;;;42.67;28.07;;;3.20;48.40;;;;;;5067763;28;20292;-85
2023/12/05 10:33:42;;;;;;;50.50;29.70;;;3.10;48.20;;;;;;5057121;28;20182;-88
2023/12/05 10:36:11;;;;;;;45.50;30.90;;;3.20;48.30;;;;;;5065663;28;20548;-84
2023/12/05 10:38:44;;;;;;;43.67;28.10;;;3.20;48.20;;;;;;5079379;28;20186;-87
2023/12/05 10:41:10;;;;;;;43.73;29.23;;;3.20;48.20;;;;;;5057545;28;20573;-86
2023/12/05 10:43:35;;;;;;;46.23;28.77;;;3.20;48.10;;;;;;5070751;28;20195;-87
2023/12/05 10:46:05;;;;;;;40.70;27.60;;;3.30;48.20;;;;;;5052861;28;20230;-89
2023/12/05 10:48:31;;;;;;;46.73;29.03;;;3.30;48.10;;;;;;5074368;28;20226;-86
2023/12/05 10:50:57;;;;;;;44.50;29.30;;;3.30;48.10;;;;;;5067900;28;20188;-88
2023/12/05 10:53:24;;;;;;;50.97;30.00;;;3.30;48.10;;;;;;5068202;28;20196;-88
2023/12/05 10:55:50;;;;;;;45.27;30.57;;;3.40;48.20;;;;;;5059047;28;20291;-88
2023/12/05 10:58:16;;;;;;;45.33;29.73;;;3.40;48.30;;;;;;5070159;28;20182;-86
2023/12/05 11:00:43;;;;;;;46.60;29.30;;;3.40;48.20;;;;;;5072506;28;20201;-87
2023/12/05 11:03:09;;;;;;;47.50;29.47;;;3.40;48.10;;;;;;5059682;28;20185;-89
2023/12/05 11:05:35;;;;;;;48.67;30.23;;;3.40;48.10;;;;;;5063934;28;20176;-85
2023/12/05 11:08:03;;;;;;;43.63;29.03;;;3.60;48.30;;;;;;5085060;28;20184;-85
2023/12/05 11:10:29;;;;;;;44.20;29.37;;;3.50;48.10;;;;;;5086541;28;20641;-87
2023/12/05 11:12:58;;;;;;;42.53;29.63;;;3.50;48.10;;;;;;5084744;28;20173;-84
2023/12/05 11:15:44;;;;;;;44.87;28.40;;;3.50;48.20;;;;;;5081641;28;20271;-84
2023/12/05 11:18:12;;;;;;;43.50;29.33;;;3.70;48.30;;;;;;5066198;28;20195;-87
2023/12/05 11:21:17;;;;;;;42.67;27.80;;;3.60;48.20;;;;;;5076591;28;20254;-86
2023/12/05 11:24:05;;;;;;;44.13;29.77;;;3.70;48.30;;;;;;5057841;28;20199;-84
2023/12/05 11:26:45;;;;;;;45.60;28.67;;;3.70;48.10;;;;;;5060775;28;20189;-88
2023/12/05 11:29:47;;;;;;;45.27;29.47;;;3.90;48.20;;;;;;5073114;28;20184;-87
2023/12/05 11:32:54;;;;;;;40.33;27.80;;;3.80;48.10;;;;;;5056323;28;20271;-87
2023/12/05 11:35:51;;;;;;;42.07;28.20;;;3.90;48.20;;;;;;5009896;28;20182;-88
2023/12/05 11:38:19;;;;;;;45.13;28.37;;;3.90;48.10;;;;;;5065160;28;20644;-89
2023/12/05 11:41:17;;;;;;;43.13;28.10;;;3.90;48.10;;;;;;5084622;28;20209;-87
2023/12/05 11:44:03;;;;;;;43.33;28.23;;;3.90;48.00;;;;;;5069864;28;20188;-86
2023/12/05 11:46:35;;;;;;;40.23;27.60;;;3.90;47.90;;;;;;5070534;28;20181;-90
2023/12/05 11:49:02;;;;;;;43.93;26.30;;;3.90;47.90;;;;;;5068337;28;20318;-86
2023/12/05 11:51:32;;;;;;;41.90;27.33;;;4.00;48.00;;;;;;5082199;28;20189;-90
2023/12/05 11:54:01;;;;;;;41.33;28.20;;;4.20;48.10;;;;;;5063712;28;20227;-88
2023/12/05 11:56:30;;;;;;;39.30;26.40;;;4.10;48.00;;;;;;5058770;28;20257;-89
2023/12/05 11:59:16;;;;;;;43.07;27.80;;;4.10;48.00;;;;;;5054516;28;20188;-84
2023/12/05 12:01:43;;;;;;;40.33;27.70;;;4.10;47.80;;;;;;5044977;28;20243;-87
2023/12/05 12:04:19;;;;;;;42.27;27.80;;;4.10;47.90;;;;;;5084100;28;20180;-88
2023/12/05 12:06:46;;;;;;;41.43;26.53;;;4.10;47.80;;;;;;5086637;28;20168;-88
2023/12/05 12:09:12;;;;;;;38.00;26.03;;;4.20;47.80;;;;;;5063939;28;20189;-84
2023/12/05 12:11:39;;;;;;;37.80;26.47;;;4.10;47.60;;;;;;5058612;28;20682;-86
2023/12/05 12:14:31;;;;;;;40.53;27.27;;;4.30;47.80;;;;;;5080886;28;20189;-88
2023/12/05 12:16:57;;;;;;;37.87;25.57;;;4.30;47.70;;;;;;5062470;28;20216;-90
2023/12/05 12:19:23;;;;;;;41.83;26.03;;;4.20;47.50;;;;;;5067788;28;20183;-87
2023/12/05 12:21:49;;;;;;;41.30;28.47;;;4.20;47.50;;;;;;5070055;28;20673;-87
2023/12/05 12:24:23;;;;;;;35.37;24.77;;;4.20;47.50;;;;;;5082178;28;20180;-86
2023/12/05 12:26:56;;;;;;;40.83;25.93;;;4.30;47.50;;;;;;5066110;28;20217;-85
2023/12/05 12:29:23;;;;;;;38.23;25.43;;;4.20;47.30;;;;;;5060832;28;20174;-87
2023/12/05 12:31:52;;;;;;;41.07;26.20;;;4.30;47.30;;;;;;5087843;28;20196;-89
2023/12/05 12:34:26;;;;;;;40.10;25.20;;;4.30;47.40;;;;;;5071962;28;20178;-84
2023/12/05 12:36:52;;;;;;;35.57;24.63;;;4.30;48.00;;;;;;5087799;28;20260;-88